Time;durP1;ratioP1;P1;durP2;ratioP2;P2;SDS_P1;SDS_P2;PMS_P1;PMS_P2;Temp;Humidity;BMP_temperature;BMP_pressure;BME280_temperature;BME280_humidity;BME280_pressure;Samples;Min_cycle;Max_cycle;Signal;HPM_P1;HPM_P2
2021/04/23 00:02:10;;;;;;;7.40;3.57;;;6.70;73.90;;;;;;5048459;28;20060;-75
2021/04/23 00:04:35;;;;;;;8.80;4.20;;;6.70;74.20;;;;;;5048453;28;20398;-75
2021/04/23 00:07:01;;;;;;;10.60;4.27;;;6.70;74.30;;;;;;5048971;28;20057;-75
2021/04/23 00:09:33;;;;;;;10.67;4.20;;;6.70;74.50;;;;;;5061906;28;20460;-74
2021/04/23 00:12:12;;;;;;;9.27;3.83;;;6.70;74.80;;;;;;5054351;28;20105;-74
2021/04/23 00:14:43;;;;;;;11.53;3.63;;;6.80;75.00;;;;;;5052726;28;20029;-74
2021/04/23 00:17:09;;;;;;;9.57;3.23;;;6.70;74.60;;;;;;5053403;28;20037;-75
2021/04/23 00:19:35;;;;;;;10.00;3.97;;;6.70;74.80;;;;;;5065517;28;20054;-74
2021/04/23 00:22:01;;;;;;;10.37;3.70;;;6.70;74.80;;;;;;5071998;28;20138;-73
2021/04/23 00:24:27;;;;;;;9.30;3.67;;;6.70;75.20;;;;;;5073877;28;21038;-73
2021/04/23 00:26:53;;;;;;;9.43;3.70;;;6.60;75.00;;;;;;5069359;28;20033;-73
2021/04/23 00:29:19;;;;;;;11.20;4.03;;;6.50;74.90;;;;;;5045445;28;20035;-73
2021/04/23 00:31:47;;;;;;;8.60;3.80;;;6.50;75.50;;;;;;5073949;28;20474;-73
2021/04/23 00:34:12;;;;;;;10.83;4.37;;;6.50;75.50;;;;;;5073427;28;20048;-72
2021/04/23 00:36:38;;;;;;;10.93;3.80;;;6.50;75.40;;;;;;5073718;28;20056;-73
2021/04/23 00:39:04;;;;;;;8.23;3.63;;;6.50;75.50;;;;;;5029295;28;20086;-74
2021/04/23 00:41:34;;;;;;;10.20;3.80;;;6.50;75.60;;;;;;5061817;28;20086;-75
2021/04/23 00:44:00;;;;;;;13.03;3.97;;;6.40;75.60;;;;;;5072886;28;20032;-75
2021/04/23 00:46:29;;;;;;;11.23;4.10;;;6.40;76.00;;;;;;5073055;28;20035;-73
2021/04/23 00:48:55;;;;;;;12.13;3.57;;;6.40;76.00;;;;;;5066469;28;20025;-73
2021/04/23 00:51:29;;;;;;;9.37;4.67;;;6.40;75.60;;;;;;5053752;28;20047;-73
2021/04/23 00:53:56;;;;;;;15.43;4.63;;;6.30;75.80;;;;;;5052819;28;20017;-74
2021/04/23 00:56:31;;;;;;;11.50;3.67;;;6.30;75.80;;;;;;5052148;28;20036;-75
2021/04/23 00:59:00;;;;;;;9.63;3.73;;;6.30;76.10;;;;;;5057410;28;20035;-74
2021/04/23 01:01:30;;;;;;;11.33;4.07;;;6.20;76.00;;;;;;5062282;28;20033;-73
2021/04/23 01:03:57;;;;;;;11.30;4.20;;;6.20;75.90;;;;;;5052931;28;20045;-75
2021/04/23 01:06:26;;;;;;;14.90;4.53;;;6.20;76.10;;;;;;5039276;28;20033;-74
2021/04/23 01:08:53;;;;;;;12.53;4.57;;;6.10;76.00;;;;;;5038378;28;20033;-78
2021/04/23 01:11:23;;;;;;;8.97;4.20;;;6.10;76.70;;;;;;5052888;28;20544;-73
2021/04/23 01:13:50;;;;;;;12.60;5.50;;;6.10;76.60;;;;;;5051779;28;20074;-73
2021/04/23 01:16:19;;;;;;;16.13;7.43;;;6.00;76.70;;;;;;5061771;28;20112;-73
2021/04/23 01:18:46;;;;;;;19.83;9.07;;;6.00;77.00;;;;;;5069279;28;20402;-74
2021/04/23 01:21:19;;;;;;;23.03;11.07;;;6.00;77.00;;;;;;5050927;28;20124;-73
2021/04/23 01:23:47;;;;;;;25.23;12.60;;;6.00;77.20;;;;;;5051960;28;20027;-74
2021/04/23 01:26:15;;;;;;;22.47;11.83;;;6.00;77.40;;;;;;5050512;28;20025;-74
2021/04/23 01:28:41;;;;;;;24.47;12.07;;;6.00;77.20;;;;;;5069057;28;20032;-76
2021/04/23 01:31:10;;;;;;;35.43;14.60;;;6.00;77.10;;;;;;5046298;28;20127;-73
2021/04/23 01:33:39;;;;;;;29.60;14.27;;;5.90;77.60;;;;;;5061075;28;20108;-73
2021/04/23 01:36:06;;;;;;;32.80;17.23;;;5.90;77.00;;;;;;5061771;28;20028;-75
2021/04/23 01:38:33;;;;;;;37.63;20.10;;;5.90;77.50;;;;;;5070317;28;20033;-74
2021/04/23 01:40:59;;;;;;;34.63;19.13;;;5.90;77.50;;;;;;5071386;28;20058;-78
2021/04/23 01:43:24;;;;;;;31.87;16.97;;;5.90;77.30;;;;;;5050164;28;20064;-73
2021/04/23 01:45:50;;;;;;;33.60;19.03;;;5.90;76.90;;;;;;5051828;28;20029;-75
2021/04/23 01:48:17;;;;;;;36.23;19.70;;;5.90;77.20;;;;;;5050416;28;20029;-75
2021/04/23 01:50:44;;;;;;;38.27;19.40;;;5.80;77.30;;;;;;5052328;28;20174;-73
2021/04/23 01:53:09;;;;;;;40.40;21.90;;;5.80;77.50;;;;;;5070291;28;20482;-73
2021/04/23 01:55:36;;;;;;;38.33;21.57;;;5.70;77.50;;;;;;5070516;28;20043;-74
2021/04/23 01:58:02;;;;;;;43.10;21.77;;;5.70;77.80;;;;;;5070560;28;20029;-78
2021/04/23 02:00:34;;;;;;;43.17;23.07;;;5.70;77.70;;;;;;5070655;28;20394;-76
2021/04/23 02:03:03;;;;;;;39.03;21.92;;;5.60;77.80;;;;;;5070432;28;20111;-78
2021/04/23 02:05:29;;;;;;;40.00;21.07;;;5.70;78.30;;;;;;5065309;28;20025;-73
2021/04/23 02:07:55;;;;;;;43.13;22.43;;;5.70;77.90;;;;;;5048914;28;20506;-73
2021/04/23 02:10:26;;;;;;;35.43;19.90;;;5.70;78.30;;;;;;5059536;28;20033;-74
2021/04/23 02:12:52;;;;;;;35.33;20.13;;;5.60;78.30;;;;;;5051981;28;20533;-74
2021/04/23 02:15:20;;;;;;;29.97;15.53;;;5.60;78.20;;;;;;5050986;28;20033;-74
2021/04/23 02:17:46;;;;;;;38.50;20.57;;;5.60;78.00;;;;;;5056387;28;20363;-74
2021/04/23 02:20:20;;;;;;;39.67;20.07;;;5.50;78.50;;;;;;5069639;28;20033;-74
2021/04/23 02:22:47;;;;;;;31.67;17.47;;;5.50;78.60;;;;;;5061446;28;20025;-74
2021/04/23 02:25:15;;;;;;;33.90;17.70;;;5.50;78.40;;;;;;5049053;28;20437;-73
2021/04/23 02:27:41;;;;;;;38.17;20.13;;;5.40;78.20;;;;;;5051104;28;20033;-75
2021/04/23 02:30:14;;;;;;;30.07;16.10;;;5.40;78.80;;;;;;5051247;28;20037;-77
2021/04/23 02:32:39;;;;;;;34.08;17.13;;;5.40;78.70;;;;;;5050069;28;20086;-75
2021/04/23 02:35:08;;;;;;;36.43;19.13;;;5.30;78.60;;;;;;5065316;28;20024;-78
2021/04/23 02:37:34;;;;;;;28.83;16.50;;;5.30;78.60;;;;;;5068442;28;20020;-75
2021/04/23 02:40:00;;;;;;;36.73;19.47;;;5.20;78.70;;;;;;5050220;28;20037;-75
2021/04/23 02:42:26;;;;;;;34.30;19.03;;;5.20;79.00;;;;;;5032672;28;20021;-74
2021/04/23 02:44:52;;;;;;;28.47;16.40;;;5.20;79.00;;;;;;5051137;28;20041;-75
2021/04/23 02:47:17;;;;;;;24.30;14.03;;;5.20;79.30;;;;;;5032188;28;20040;-74
2021/04/23 02:49:43;;;;;;;34.90;17.47;;;5.10;78.30;;;;;;5033179;28;20040;-73
2021/04/23 02:52:09;;;;;;;30.70;16.27;;;5.00;79.00;;;;;;5053187;28;20039;-78
2021/04/23 02:54:34;;;;;;;27.73;15.83;;;5.00;79.40;;;;;;5067538;28;20056;-74
2021/04/23 02:57:00;;;;;;;29.63;15.40;;;5.00;79.60;;;;;;5069334;28;20119;-74
2021/04/23 02:59:26;;;;;;;30.20;16.93;;;5.10;79.70;;;;;;5068603;28;20115;-74
2021/04/23 03:01:55;;;;;;;28.70;14.97;;;5.00;79.80;;;;;;5070763;28;20056;-73
2021/04/23 03:04:22;;;;;;;29.40;15.63;;;5.00;79.70;;;;;;5068440;28;20094;-73
2021/04/23 03:06:49;;;;;;;31.30;15.00;;;5.00;79.70;;;;;;5052862;28;20430;-74
2021/04/23 03:09:15;;;;;;;24.53;14.00;;;5.00;79.50;;;;;;5067481;28;20103;-73
2021/04/23 03:11:42;;;;;;;27.23;13.20;;;5.00;79.60;;;;;;5068801;28;20517;-74
2021/04/23 03:14:08;;;;;;;28.00;14.53;;;4.90;79.60;;;;;;5055606;28;20114;-74
2021/04/23 03:16:37;;;;;;;29.70;14.37;;;4.90;79.90;;;;;;5049798;28;20131;-74
2021/04/23 03:19:08;;;;;;;26.23;15.30;;;4.90;80.30;;;;;;5049195;28;20483;-73
2021/04/23 03:21:34;;;;;;;29.50;14.57;;;5.00;80.10;;;;;;5049678;28;20048;-74
2021/04/23 03:24:00;;;;;;;23.20;13.73;;;4.90;80.20;;;;;;5049093;28;20021;-73
2021/04/23 03:26:26;;;;;;;24.27;13.73;;;5.00;80.10;;;;;;5050449;28;20040;-76
2021/04/23 03:28:53;;;;;;;23.37;10.83;;;5.00;80.60;;;;;;5069288;28;20028;-74
2021/04/23 03:31:20;;;;;;;23.97;11.60;;;5.00;79.70;;;;;;5052206;28;20028;-74
2021/04/23 03:33:46;;;;;;;24.60;11.27;;;4.90;79.20;;;;;;5057227;28;20083;-74
2021/04/23 03:36:13;;;;;;;25.20;12.60;;;4.80;79.60;;;;;;5049511;28;20033;-76
2021/04/23 03:38:42;;;;;;;21.10;11.43;;;4.80;79.60;;;;;;5048584;28;20494;-75
2021/04/23 03:41:20;;;;;;;22.97;12.30;;;4.70;79.60;;;;;;5047157;28;20681;-75
2021/04/23 03:43:46;;;;;;;26.57;12.37;;;4.70;80.40;;;;;;5039142;28;20021;-73
2021/04/23 03:46:13;;;;;;;25.10;10.50;;;4.70;80.70;;;;;;5048880;28;20029;-73
2021/04/23 03:48:39;;;;;;;22.60;10.63;;;4.80;80.60;;;;;;5051423;28;20530;-74
2021/04/23 03:51:06;;;;;;;21.50;9.73;;;4.80;80.60;;;;;;5050946;28;20166;-74
2021/04/23 03:53:33;;;;;;;22.83;10.00;;;4.60;80.10;;;;;;5062152;28;20040;-75
2021/04/23 03:56:00;;;;;;;21.63;8.90;;;4.50;79.80;;;;;;5069845;28;20036;-74
2021/04/23 03:58:26;;;;;;;21.10;10.20;;;4.30;80.00;;;;;;5068404;28;20032;-74
2021/04/23 04:01:03;;;;;;;22.87;11.13;;;4.20;80.60;;;;;;5056366;28;20376;-73
2021/04/23 04:03:30;;;;;;;24.97;10.50;;;4.20;81.30;;;;;;5049014;28;20044;-75
2021/04/23 04:05:57;;;;;;;19.10;10.67;;;4.30;81.60;;;;;;5048808;28;20029;-74
2021/04/23 04:08:23;;;;;;;24.43;10.40;;;4.40;81.80;;;;;;5047780;28;20029;-75
2021/04/23 04:10:48;;;;;;;17.63;9.73;;;4.40;82.00;;;;;;5032513;28;20537;-74
2021/04/23 04:13:15;;;;;;;21.33;9.73;;;4.40;81.80;;;;;;5044583;28;20488;-74
2021/04/23 04:15:41;;;;;;;20.50;9.43;;;4.40;81.40;;;;;;5067213;28;20112;-74
2021/04/23 04:18:10;;;;;;;20.13;10.00;;;4.30;81.00;;;;;;5070126;28;20450;-74
2021/04/23 04:20:38;;;;;;;20.90;9.87;;;4.30;81.70;;;;;;5065114;28;20036;-73
2021/04/23 04:23:06;;;;;;;23.83;10.57;;;4.30;80.90;;;;;;5048180;28;20029;-73
2021/04/23 04:25:37;;;;;;;16.67;9.63;;;4.30;81.90;;;;;;5066789;28;20040;-74
2021/04/23 04:28:07;;;;;;;19.87;8.80;;;4.40;81.70;;;;;;5051422;28;20475;-74
2021/04/23 04:30:33;;;;;;;16.43;8.83;;;4.30;81.40;;;;;;5047838;28;20140;-74
2021/04/23 04:32:59;;;;;;;20.43;9.43;;;4.30;81.60;;;;;;5032370;28;20175;-74
2021/04/23 04:35:26;;;;;;;19.60;9.77;;;4.40;82.20;;;;;;5047833;28;20459;-78
2021/04/23 04:37:52;;;;;;;29.87;9.83;;;4.60;82.30;;;;;;5061156;28;20029;-74
2021/04/23 04:40:19;;;;;;;23.63;9.23;;;4.60;82.50;;;;;;5070455;28;20036;-75
2021/04/23 04:42:46;;;;;;;21.13;9.10;;;4.90;81.90;;;;;;5069342;28;20059;-75
2021/04/23 04:45:16;;;;;;;23.23;9.80;;;5.20;81.00;;;;;;5053248;28;20492;-74
2021/04/23 04:47:41;;;;;;;18.80;8.37;;;5.70;80.60;;;;;;5050659;28;20025;-75
2021/04/23 04:50:12;;;;;;;17.07;9.17;;;6.20;78.90;;;;;;5031977;28;20041;-74
2021/04/23 04:52:38;;;;;;;17.90;8.63;;;6.90;77.20;;;;;;5049098;28;20082;-74
2021/04/23 04:55:06;;;;;;;19.53;8.47;;;7.50;74.00;;;;;;5048370;28;20071;-74
2021/04/23 04:57:33;;;;;;;19.43;8.37;;;8.10;72.10;;;;;;5031498;28;20051;-75
2021/04/23 04:59:59;;;;;;;20.03;8.70;;;8.50;67.70;;;;;;5063447;28;20037;-75
2021/04/23 05:02:25;;;;;;;17.93;7.97;;;8.80;66.70;;;;;;5071760;28;20028;-77
2021/04/23 05:04:51;;;;;;;20.17;8.00;;;9.20;65.60;;;;;;5053663;28;20114;-76
2021/04/23 05:07:16;;;;;;;19.73;7.20;;;9.70;64.30;;;;;;5072045;28;20028;-75
2021/04/23 05:09:42;;;;;;;16.53;7.33;;;10.20;63.90;;;;;;5069153;28;20375;-75
2021/04/23 05:12:08;;;;;;;18.70;7.73;;;10.90;62.10;;;;;;5071925;28;20039;-74
2021/04/23 05:14:33;;;;;;;16.53;7.87;;;11.50;59.50;;;;;;5054621;28;20044;-74
2021/04/23 05:16:59;;;;;;;17.70;7.90;;;12.00;58.50;;;;;;5055325;28;20135;-74
2021/04/23 05:19:25;;;;;;;13.63;6.90;;;12.60;57.40;;;;;;5071811;28;20020;-75
2021/04/23 05:21:51;;;;;;;14.73;7.37;;;13.10;55.90;;;;;;5070939;28;20029;-74
2021/04/23 05:24:18;;;;;;;13.07;7.33;;;13.50;53.60;;;;;;5073043;28;20083;-75
2021/04/23 05:26:43;;;;;;;16.53;7.37;;;14.00;52.70;;;;;;5057256;28;20033;-75
2021/04/23 05:29:09;;;;;;;15.80;6.90;;;14.50;50.70;;;;;;5053476;28;20025;-74
2021/04/23 05:31:35;;;;;;;15.60;7.80;;;14.90;49.00;;;;;;5050634;28;20379;-75
2021/04/23 05:34:02;;;;;;;15.00;6.22;;;15.10;48.20;;;;;;5061154;28;20514;-75
2021/04/23 05:36:28;;;;;;;11.98;6.00;;;15.40;47.40;;;;;;5071681;28;20500;-74
2021/04/23 05:38:54;;;;;;;12.68;6.45;;;15.70;47.20;;;;;;5054259;28;20033;-75
2021/04/23 05:41:20;;;;;;;19.25;6.68;;;16.00;46.60;;;;;;5051628;28;20471;-75
2021/04/23 05:43:48;;;;;;;14.23;7.28;;;16.50;45.40;;;;;;5052051;28;20040;-74
2021/04/23 05:46:16;;;;;;;10.80;5.97;;;16.80;44.60;;;;;;5054913;28;20123;-74
2021/04/23 05:48:42;;;;;;;12.27;6.22;;;17.00;44.30;;;;;;5063309;28;20037;-74
2021/04/23 05:51:08;;;;;;;12.82;6.22;;;17.30;43.80;;;;;;5052397;28;20497;-74
2021/04/23 05:53:33;;;;;;;12.95;6.32;;;17.70;43.00;;;;;;5052101;28;20036;-78
2021/04/23 05:55:59;;;;;;;14.00;6.72;;;18.00;42.30;;;;;;5050726;28;20498;-74
2021/04/23 05:58:25;;;;;;;13.70;6.25;;;18.20;41.60;;;;;;5034217;28;20471;-74
2021/04/23 06:00:51;;;;;;;13.18;6.15;;;18.50;41.20;;;;;;5014676;28;20033;-74
2021/04/23 06:03:16;;;;;;;10.52;6.22;;;18.70;40.90;;;;;;5041587;28;20136;-75
2021/04/23 06:05:43;;;;;;;13.18;6.65;;;18.80;40.30;;;;;;5033674;28;20099;-75
2021/04/23 06:08:11;;;;;;;13.40;6.72;;;18.90;39.60;;;;;;5052327;28;20437;-74
2021/04/23 06:10:38;;;;;;;13.45;6.55;;;19.20;38.90;;;;;;5054150;28;20493;-78
2021/04/23 06:13:04;;;;;;;10.02;6.00;;;19.00;39.20;;;;;;5054302;28;20098;-74
2021/04/23 06:15:30;;;;;;;15.07;6.32;;;19.10;38.80;;;;;;5072201;28;20029;-75
2021/04/23 06:17:56;;;;;;;14.57;5.90;;;18.30;38.30;;;;;;5071188;28;20157;-75
2021/04/23 06:20:29;;;;;;;14.38;5.90;;;17.00;40.90;;;;;;5070640;28;20051;-74
2021/04/23 06:22:56;;;;;;;17.35;6.30;;;17.20;42.50;;;;;;5070085;28;20111;-74
2021/04/23 06:25:22;;;;;;;13.38;5.65;;;17.40;41.30;;;;;;5060380;28;20029;-75
2021/04/23 06:27:50;;;;;;;13.05;5.82;;;17.20;41.60;;;;;;5058209;28;20082;-74
2021/04/23 06:30:23;;;;;;;11.38;5.60;;;17.00;42.20;;;;;;5053501;28;20064;-73
2021/04/23 06:32:49;;;;;;;11.18;4.80;;;17.40;41.70;;;;;;5051069;28;20041;-74
2021/04/23 06:35:20;;;;;;;13.40;5.03;;;17.70;41.80;;;;;;5049809;28;20029;-74
2021/04/23 06:37:46;;;;;;;8.95;5.18;;;17.60;39.60;;;;;;5050820;28;20029;-74
2021/04/23 06:40:14;;;;;;;11.98;4.70;;;17.20;40.60;;;;;;5051700;28;20032;-73
2021/04/23 06:42:40;;;;;;;10.88;5.63;;;17.10;41.40;;;;;;5049953;28;20036;-77
2021/04/23 06:45:09;;;;;;;11.30;5.30;;;16.70;41.10;;;;;;5033008;28;20041;-74
2021/04/23 06:47:35;;;;;;;13.32;5.03;;;16.00;43.50;;;;;;5052842;28;20025;-73
2021/04/23 06:50:02;;;;;;;8.77;4.68;;;16.00;44.10;;;;;;5047723;28;20740;-76
2021/04/23 06:52:28;;;;;;;10.90;4.80;;;16.80;42.90;;;;;;5047951;28;20025;-73
2021/04/23 06:54:54;;;;;;;9.70;5.20;;;17.40;41.60;;;;;;5048604;28;20041;-75
2021/04/23 06:57:19;;;;;;;7.85;4.30;;;17.80;39.70;;;;;;5051172;28;20585;-75
2021/04/23 06:59:45;;;;;;;9.55;3.88;;;17.60;40.10;;;;;;5029738;28;20033;-78
2021/04/23 07:02:11;;;;;;;12.05;4.30;;;17.60;40.70;;;;;;5030108;28;20053;-75
2021/04/23 07:04:36;;;;;;;11.15;4.07;;;18.30;39.50;;;;;;5048882;28;20401;-73
2021/04/23 07:07:02;;;;;;;7.28;3.53;;;18.90;39.00;;;;;;5069856;28;20779;-74
2021/04/23 07:09:28;;;;;;;8.55;3.67;;;18.30;38.40;;;;;;5050696;28;20110;-73
2021/04/23 07:11:53;;;;;;;10.25;3.80;;;18.70;38.90;;;;;;5049997;28;20044;-74
2021/04/23 07:14:19;;;;;;;6.38;2.63;;;19.30;38.60;;;;;;5032946;28;20032;-75
2021/04/23 07:16:44;;;;;;;10.30;2.55;;;19.60;36.50;;;;;;5050674;28;20425;-79
2021/04/23 07:19:10;;;;;;;10.20;1.80;;;19.30;35.10;;;;;;5032368;28;20487;-74
2021/04/23 07:21:36;;;;;;;7.85;2.10;;;18.00;35.40;;;;;;5064261;28;20040;-74
2021/04/23 07:24:02;;;;;;;6.25;1.45;;;16.90;38.60;;;;;;5056058;28;20037;-74
2021/04/23 07:26:27;;;;;;;7.32;1.77;;;16.30;39.30;;;;;;5048594;28;20080;-75
2021/04/23 07:28:53;;;;;;;5.82;1.50;;;15.70;40.20;;;;;;5050404;28;20068;-73
2021/04/23 07:31:18;;;;;;;6.03;1.55;;;15.20;41.30;;;;;;5050342;28;20474;-73
2021/04/23 07:33:44;;;;;;;7.10;1.88;;;14.90;42.20;;;;;;5050694;28;20033;-75
2021/04/23 07:36:10;;;;;;;6.30;1.50;;;15.60;42.90;;;;;;5049780;28;20619;-76
2021/04/23 07:38:35;;;;;;;9.60;2.38;;;15.90;39.70;;;;;;5048611;28;20079;-74
2021/04/23 07:41:01;;;;;;;6.80;1.55;;;16.70;41.10;;;;;;5048117;28;20090;-75
2021/04/23 07:43:27;;;;;;;7.57;1.38;;;17.50;38.00;;;;;;5036929;28;20048;-75
2021/04/23 07:45:54;;;;;;;5.88;1.40;;;16.90;36.70;;;;;;5066329;28;20421;-80
2021/04/23 07:48:20;;;;;;;7.22;1.98;;;15.80;38.20;;;;;;5066145;28;20036;-74
2021/04/23 07:50:48;;;;;;;6.55;1.65;;;16.20;41.20;;;;;;5059529;28;20478;-73
2021/04/23 07:53:13;;;;;;;7.75;0.90;;;17.50;40.00;;;;;;5051384;28;20017;-75
2021/04/23 07:55:40;;;;;;;7.30;1.10;;;17.70;35.70;;;;;;5055621;28;20359;-76
2021/04/23 07:58:05;;;;;;;5.93;0.98;;;16.60;37.60;;;;;;5051858;28;20108;-74
2021/04/23 08:00:32;;;;;;;7.28;1.30;;;16.10;37.40;;;;;;5059337;28;20115;-76
2021/04/23 08:02:57;;;;;;;8.00;1.38;;;16.10;40.00;;;;;;5052221;28;20025;-74
2021/04/23 08:05:24;;;;;;;8.13;1.40;;;16.50;37.80;;;;;;5051502;28;20033;-75
2021/04/23 08:07:49;;;;;;;6.50;1.00;;;16.40;38.70;;;;;;5038044;28;20056;-75
2021/04/23 08:10:17;;;;;;;8.13;1.20;;;16.80;37.80;;;;;;5049466;28;20063;-75
2021/04/23 08:12:46;;;;;;;16.17;1.83;;;17.60;37.50;;;;;;5048153;28;20154;-75
2021/04/23 08:15:14;;;;;;;10.38;1.90;;;18.60;38.20;;;;;;5049158;28;20083;-75
2021/04/23 08:17:40;;;;;;;7.65;1.60;;;19.60;36.10;;;;;;5056926;28;20462;-75
2021/04/23 08:20:07;;;;;;;5.43;1.20;;;20.40;34.40;;;;;;5051638;28;20087;-73
2021/04/23 08:22:33;;;;;;;9.13;1.40;;;21.00;33.40;;;;;;5053521;28;20048;-77
2021/04/23 08:24:59;;;;;;;5.93;1.02;;;19.70;32.50;;;;;;5050774;28;20055;-77
2021/04/23 08:27:25;;;;;;;6.15;1.48;;;18.20;34.30;;;;;;5053228;28;20037;-75
2021/04/23 08:29:53;;;;;;;6.53;1.23;;;17.60;35.80;;;;;;5064122;28;20462;-74
2021/04/23 08:32:19;;;;;;;7.15;1.10;;;17.70;38.70;;;;;;5040656;28;20916;-73
2021/04/23 08:34:44;;;;;;;7.03;1.17;;;18.50;36.00;;;;;;5052897;28;20028;-76
2021/04/23 08:37:10;;;;;;;6.10;0.95;;;19.00;36.70;;;;;;5060840;28;20045;-74
2021/04/23 08:39:37;;;;;;;10.07;1.27;;;19.50;35.50;;;;;;5063263;28;20108;-76
2021/04/23 08:42:04;;;;;;;6.18;1.20;;;20.20;34.50;;;;;;5067194;28;20397;-75
2021/04/23 08:44:30;;;;;;;5.70;1.30;;;20.80;34.00;;;;;;5055393;28;20051;-75
2021/04/23 08:46:56;;;;;;;5.25;1.27;;;21.40;33.20;;;;;;5071959;28;20025;-75
2021/04/23 08:49:24;;;;;;;7.13;1.13;;;20.90;30.70;;;;;;5059488;28;20025;-74
2021/04/23 08:51:51;;;;;;;6.28;1.10;;;20.40;33.90;;;;;;5057313;28;20033;-76
2021/04/23 08:54:20;;;;;;;6.07;1.10;;;20.40;33.40;;;;;;5052814;28;20021;-75
2021/04/23 08:56:48;;;;;;;7.85;1.13;;;20.40;32.80;;;;;;5054357;28;20502;-74
2021/04/23 08:59:13;;;;;;;6.93;1.35;;;19.80;33.60;;;;;;5050989;28;20025;-74
2021/04/23 09:01:39;;;;;;;7.35;1.65;;;19.30;32.40;;;;;;5052003;28;20044;-75
2021/04/23 09:04:05;;;;;;;5.20;1.00;;;19.60;34.40;;;;;;5050748;28;20139;-76
2021/04/23 09:06:30;;;;;;;6.13;1.20;;;20.60;34.40;;;;;;5061813;28;20121;-76
2021/04/23 09:08:56;;;;;;;7.07;1.48;;;21.50;33.10;;;;;;5053241;28;20039;-75
2021/04/23 09:11:24;;;;;;;6.70;1.17;;;21.90;30.90;;;;;;5053931;28;20025;-76
2021/04/23 09:13:56;;;;;;;7.72;1.30;;;22.10;31.10;;;;;;5052330;28;20481;-76
2021/04/23 09:16:45;;;;;;;7.70;1.45;;;20.90;31.50;;;;;;5052098;28;20032;-76
2021/04/23 09:19:22;;;;;;;5.57;1.13;;;20.30;31.50;;;;;;5053381;28;20028;-74
2021/04/23 09:21:50;;;;;;;6.15;1.80;;;18.90;33.50;;;;;;5052958;28;20075;-76
2021/04/23 09:24:21;;;;;;;6.82;1.50;;;18.70;35.10;;;;;;5055722;28;20017;-76
2021/04/23 09:26:49;;;;;;;7.57;1.20;;;19.50;35.00;;;;;;5052869;28;20398;-76
2021/04/23 09:29:24;;;;;;;6.13;1.38;;;20.40;34.10;;;;;;5051676;28;20025;-76
2021/04/23 09:31:49;;;;;;;6.05;1.63;;;21.10;32.40;;;;;;5065005;28;20033;-75
2021/04/23 09:34:17;;;;;;;5.63;1.35;;;20.70;31.60;;;;;;5060213;28;20033;-76
2021/04/23 09:36:45;;;;;;;4.32;1.20;;;20.40;34.00;;;;;;5052406;28;20090;-74
2021/04/23 09:39:15;;;;;;;6.45;1.30;;;20.00;32.30;;;;;;5052134;28;20028;-74
2021/04/23 09:41:43;;;;;;;5.80;1.08;;;19.50;33.50;;;;;;5052156;28;20544;-74
2021/04/23 09:44:25;;;;;;;6.00;1.40;;;19.80;34.00;;;;;;5051864;28;20024;-80
2021/04/23 09:47:04;;;;;;;4.97;1.35;;;20.60;32.60;;;;;;5052107;28;20372;-76
2021/04/23 09:49:31;;;;;;;6.93;1.70;;;19.70;33.10;;;;;;5051090;28;20820;-79
2021/04/23 09:51:57;;;;;;;6.93;1.38;;;19.60;33.10;;;;;;5052402;28;20105;-76
2021/04/23 09:54:24;;;;;;;7.38;1.60;;;18.80;33.60;;;;;;5049450;28;20036;-76
2021/04/23 09:56:52;;;;;;;5.43;1.20;;;18.60;34.20;;;;;;5051045;28;20043;-76
2021/04/23 09:59:21;;;;;;;8.23;1.88;;;19.10;34.80;;;;;;5051120;28;20025;-77
2021/04/23 10:01:59;;;;;;;5.50;1.55;;;19.40;34.20;;;;;;5051060;28;20487;-77
2021/04/23 10:04:27;;;;;;;7.88;1.45;;;19.80;34.00;;;;;;5049221;28;20053;-76
2021/04/23 10:07:17;;;;;;;7.93;1.85;;;19.40;32.40;;;;;;5051779;28;20040;-75
2021/04/23 10:09:45;;;;;;;8.68;1.45;;;19.10;33.20;;;;;;5052035;28;20491;-78
2021/04/23 10:12:11;;;;;;;9.48;1.77;;;19.30;33.60;;;;;;5051361;28;20026;-80
2021/04/23 10:14:36;;;;;;;6.60;1.55;;;18.90;33.80;;;;;;5016556;28;20064;-75
2021/04/23 10:17:02;;;;;;;4.97;1.20;;;18.60;34.40;;;;;;5055193;28;20067;-76
2021/04/23 10:19:28;;;;;;;8.38;1.83;;;18.30;35.00;;;;;;5069500;28;20040;-75
2021/04/23 10:21:54;;;;;;;7.80;1.38;;;18.50;34.70;;;;;;5069782;28;20433;-77
2021/04/23 10:24:23;;;;;;;9.02;1.60;;;18.60;34.90;;;;;;5070697;28;20020;-76
2021/04/23 10:26:51;;;;;;;7.03;1.65;;;18.50;34.10;;;;;;5071510;28;20079;-75
2021/04/23 10:29:17;;;;;;;5.38;1.27;;;17.80;36.00;;;;;;5066887;28;20082;-76
2021/04/23 10:31:44;;;;;;;5.28;1.20;;;18.30;37.30;;;;;;5051144;28;20068;-77
2021/04/23 10:34:09;;;;;;;9.55;1.98;;;19.30;35.50;;;;;;5051253;28;20110;-77
2021/04/23 10:36:37;;;;;;;6.43;1.40;;;19.70;33.60;;;;;;5053233;28;20032;-76
2021/04/23 10:39:06;;;;;;;5.10;1.27;;;19.90;35.00;;;;;;5060670;28;20039;-75
2021/04/23 10:41:37;;;;;;;6.88;1.63;;;20.50;34.70;;;;;;5050725;28;20020;-76
2021/04/23 10:44:03;;;;;;;5.05;1.63;;;20.50;32.10;;;;;;5050612;28;20123;-75
2021/04/23 10:46:29;;;;;;;4.80;1.63;;;19.70;32.20;;;;;;5047596;28;20024;-75
2021/04/23 10:49:06;;;;;;;7.40;1.95;;;18.40;34.70;;;;;;5049557;28;20023;-76
2021/04/23 10:51:33;;;;;;;6.65;1.95;;;18.30;36.60;;;;;;5030273;28;20030;-74
2021/04/23 10:54:10;;;;;;;7.03;1.52;;;19.10;35.90;;;;;;5032966;28;20064;-74
2021/04/23 10:56:38;;;;;;;6.05;1.40;;;19.90;35.10;;;;;;5030544;28;20044;-74
2021/04/23 10:59:26;;;;;;;10.38;1.67;;;20.40;34.20;;;;;;5029260;28;20029;-75
2021/04/23 11:02:10;;;;;;;5.82;1.85;;;20.60;33.80;;;;;;5031763;28;20368;-76
2021/04/23 11:04:59;;;;;;;8.05;1.55;;;20.40;32.10;;;;;;5057391;28;20310;-76
2021/04/23 11:07:25;;;;;;;7.60;1.92;;;18.60;34.50;;;;;;5066198;28;20020;-74
2021/04/23 11:10:02;;;;;;;7.38;2.05;;;18.10;36.00;;;;;;5069074;28;20447;-74
2021/04/23 11:12:28;;;;;;;6.40;1.73;;;18.00;35.90;;;;;;5066766;28;20053;-75
2021/04/23 11:15:15;;;;;;;7.72;1.60;;;18.00;35.60;;;;;;5068750;28;20036;-77
2021/04/23 11:17:41;;;;;;;7.05;1.92;;;17.70;36.10;;;;;;5069023;28;20017;-73
2021/04/23 11:20:42;;;;;;;7.47;1.38;;;18.00;36.00;;;;;;5066785;28;20046;-75
2021/04/23 11:23:08;;;;;;;6.68;1.48;;;18.60;35.90;;;;;;4987399;28;20030;-75
2021/04/23 11:25:54;;;;;;;5.50;1.45;;;18.60;34.90;;;;;;5046215;28;20051;-74
2021/04/23 11:28:20;;;;;;;8.90;1.70;;;19.00;34.20;;;;;;5045358;28;20060;-80
2021/04/23 11:30:57;;;;;;;6.70;1.58;;;19.30;34.50;;;;;;5048651;28;20068;-76
2021/04/23 11:33:48;;;;;;;7.97;1.58;;;20.10;34.50;;;;;;5031784;28;20041;-81
2021/04/23 11:36:20;;;;;;;8.45;1.38;;;20.70;33.50;;;;;;5047919;28;20487;-75
2021/04/23 11:39:27;;;;;;;7.20;1.83;;;20.90;33.10;;;;;;5048582;28;20554;-77
2021/04/23 11:42:16;;;;;;;4.70;1.00;;;20.30;33.20;;;;;;5023240;28;20132;-76
2021/04/23 11:44:50;;;;;;;5.20;1.10;;;20.20;32.70;;;;;;5069332;28;20691;-76
2021/04/23 11:47:29;;;;;;;6.15;1.67;;;19.80;32.20;;;;;;5068581;28;20024;-75
2021/04/23 11:50:03;;;;;;;5.68;1.20;;;19.00;32.90;;;;;;5066955;28;20090;-74
2021/04/23 11:52:30;;;;;;;9.65;1.80;;;18.60;34.00;;;;;;5067529;28;20027;-76
2021/04/23 11:54:56;;;;;;;7.15;1.48;;;18.70;33.80;;;;;;5058736;28;20491;-75
2021/04/23 11:57:28;;;;;;;5.10;1.20;;;18.20;33.80;;;;;;5046321;28;20070;-78
2021/04/23 12:00:06;;;;;;;6.18;1.27;;;18.40;35.90;;;;;;5045724;28;20505;-76
2021/04/23 12:02:40;;;;;;;6.30;1.65;;;18.80;33.60;;;;;;5063854;28;20139;-74
2021/04/23 12:05:08;;;;;;;6.90;1.40;;;18.80;34.30;;;;;;5065304;28;20056;-74
2021/04/23 12:07:45;;;;;;;10.30;1.83;;;18.40;35.30;;;;;;5049481;28;20032;-75
2021/04/23 12:10:12;;;;;;;6.57;1.30;;;17.80;35.20;;;;;;5071232;28;20024;-75
2021/04/23 12:12:38;;;;;;;7.35;1.42;;;18.30;36.10;;;;;;5053132;28;20106;-78
2021/04/23 12:15:05;;;;;;;6.43;1.48;;;18.90;35.40;;;;;;5069834;28;20036;-74
2021/04/23 12:17:41;;;;;;;7.45;1.33;;;18.90;34.30;;;;;;5067592;28;20428;-74
2021/04/23 12:20:19;;;;;;;6.65;1.98;;;18.90;34.50;;;;;;5053279;28;20037;-74
2021/04/23 12:22:46;;;;;;;6.15;1.42;;;19.20;34.90;;;;;;5051236;28;20471;-75
2021/04/23 12:25:43;;;;;;;8.55;1.80;;;19.80;35.20;;;;;;5052702;28;20116;-76
2021/04/23 12:28:35;;;;;;;12.45;2.13;;;20.10;33.70;;;;;;5068737;28;20082;-78
2021/04/23 12:31:02;;;;;;;8.00;2.33;;;19.80;32.30;;;;;;5071981;28;20028;-73
2021/04/23 12:33:50;;;;;;;7.97;2.20;;;19.50;33.00;;;;;;5069665;28;20111;-80
2021/04/23 12:36:31;;;;;;;8.63;1.88;;;18.20;34.50;;;;;;5031055;28;20483;-74
2021/04/23 12:39:05;;;;;;;8.07;2.60;;;17.50;36.10;;;;;;5031677;28;20033;-76
2021/04/23 12:41:32;;;;;;;10.60;2.92;;;17.10;36.70;;;;;;5029766;28;20092;-79
2021/04/23 12:44:00;;;;;;;6.75;2.08;;;16.50;38.00;;;;;;5031688;28;20025;-76
2021/04/23 12:46:39;;;;;;;9.43;1.85;;;16.40;38.90;;;;;;5031763;28;20075;-78
2021/04/23 12:49:33;;;;;;;8.02;2.15;;;16.40;38.60;;;;;;5035845;28;20459;-75
2021/04/23 12:52:08;;;;;;;7.28;1.98;;;16.30;39.20;;;;;;5057658;28;20110;-74